CheckWX is a tool to help pilots better visualize weather data.  It is not intended as a substitute for an official pre-flight weather briefing.

12:50:53 UTC

YTNK METAR
Tennant Creek Airport
Tennant Creek, Australia
Current

51 mins ago

YTNK 161200Z AUTO 12013KT //// // NCD 22/10 Q1019
Observed
Jun-16 @ 12:00 UTC
Wind
  • 120° at 13 KTS
Visibility
Cloud Levels
  • Clear skies
Temperature
22°C / 72°F
Dewpoint
10°C / 50°F
Humidity
47%
Altimeter
30.09" Hg
Pressure
1018.92 hPa
Previous

2 hours ago

YTNK 161100Z AUTO 12010KT //// // NCD 23/08 Q1019
Observed
Jun-16 @ 11:00 UTC
Wind
  • 120° at 10 KTS
Visibility
Cloud Levels
  • Clear skies
Temperature
23°C / 73°F
Dewpoint
C / 46°F
Humidity
38%
Altimeter
30.09" Hg
Pressure
1018.92 hPa
Previous

3 hours ago

YTNK 161000Z AUTO 11007KT //// // NCD 24/08 Q1018
Observed
Jun-16 @ 10:00 UTC
Wind
  • 110° at 7 KTS
Visibility
Cloud Levels
  • Clear skies
Temperature
24°C / 75°F
Dewpoint
C / 46°F
Humidity
36%
Altimeter
30.06" Hg
Pressure
1017.92 hPa